Time;durP1;ratioP1;P1;durP2;ratioP2;P2;SDS_P1;SDS_P2;PMS_P1;PMS_P2;Temp;Humidity;BMP_temperature;BMP_pressure;BME280_temperature;BME280_humidity;BME280_pressure;Samples;Min_cycle;Max_cycle;Signal;HPM_P1;HPM_P2
2022/10/21 00:01:37;;;;;;;17.13;9.68;;;15.90;99.90;;;;;;7387866;19;20165;-76
2022/10/21 00:04:04;;;;;;;14.07;9.57;;;15.80;99.90;;;;;;7385216;19;20542;-77
2022/10/21 00:06:31;;;;;;;16.30;10.07;;;15.80;99.90;;;;;;7385811;19;20186;-77
2022/10/21 00:08:57;;;;;;;17.27;9.48;;;15.90;99.90;;;;;;7387924;19;20138;-77
2022/10/21 00:11:22;;;;;;;14.27;9.52;;;15.90;99.90;;;;;;7386636;19;20217;-77
2022/10/21 00:13:48;;;;;;;16.23;9.93;;;15.60;99.90;;;;;;7387623;19;20135;-77
2022/10/21 00:16:17;;;;;;;17.15;9.82;;;15.60;99.90;;;;;;7386108;19;20147;-77
2022/10/21 00:18:45;;;;;;;14.40;9.40;;;15.80;99.90;;;;;;7386475;19;20146;-77
2022/10/21 00:21:13;;;;;;;14.52;9.68;;;15.90;99.90;;;;;;7388123;19;20477;-77
2022/10/21 00:23:40;;;;;;;17.27;10.43;;;16.10;99.90;;;;;;7385427;19;20157;-77
2022/10/21 00:26:06;;;;;;;14.98;9.98;;;16.10;99.90;;;;;;7387741;19;20153;-77
2022/10/21 00:28:32;;;;;;;17.73;10.65;;;16.10;99.90;;;;;;7385582;19;20615;-77
2022/10/21 00:30:58;;;;;;;17.63;10.43;;;16.20;99.90;;;;;;7387094;19;20160;-76
2022/10/21 00:33:25;;;;;;;22.05;11.23;;;16.20;99.90;;;;;;7392314;19;20213;-76
2022/10/21 00:35:52;;;;;;;17.50;9.60;;;16.10;99.90;;;;;;7391887;19;20528;-76
2022/10/21 00:38:18;;;;;;;15.98;10.45;;;15.80;99.90;;;;;;7393379;19;20135;-77
2022/10/21 00:40:44;;;;;;;16.35;10.25;;;15.80;99.90;;;;;;7393124;19;20146;-77
2022/10/21 00:43:13;;;;;;;14.43;10.07;;;15.90;99.90;;;;;;7393406;19;20149;-77
2022/10/21 00:45:38;;;;;;;16.25;10.85;;;15.80;99.90;;;;;;7393873;19;20132;-77
2022/10/21 00:48:24;;;;;;;16.17;9.68;;;15.70;99.90;;;;;;7393276;19;20160;-76
2022/10/21 00:50:56;;;;;;;14.05;9.50;;;15.80;99.90;;;;;;7391847;19;20181;-76
2022/10/21 00:53:23;;;;;;;15.10;10.18;;;16.00;99.90;;;;;;7392486;19;20726;-77
2022/10/21 00:55:58;;;;;;;14.50;9.77;;;15.90;99.90;;;;;;7392337;19;20495;-75
2022/10/21 00:58:28;;;;;;;14.57;9.82;;;15.80;99.90;;;;;;7392240;19;20158;-77
2022/10/21 01:00:56;;;;;;;16.67;10.35;;;16.00;99.90;;;;;;7395651;19;20130;-77
2022/10/21 01:03:26;;;;;;;18.23;9.55;;;16.00;99.90;;;;;;7390934;19;20150;-76
2022/10/21 01:05:55;;;;;;;17.20;10.23;;;16.10;99.90;;;;;;7390685;19;20189;-77
2022/10/21 01:08:22;;;;;;;15.77;10.18;;;16.00;99.90;;;;;;7388537;19;20143;-76
2022/10/21 01:10:48;;;;;;;15.60;10.02;;;16.10;99.90;;;;;;7389832;19;20146;-77
2022/10/21 01:13:39;;;;;;;12.88;9.68;;;15.80;99.90;;;;;;7390811;19;20139;-77
2022/10/21 01:16:20;;;;;;;16.17;9.70;;;15.80;99.90;;;;;;7390047;19;20154;-77
2022/10/21 01:19:18;;;;;;;12.07;9.13;;;15.70;99.90;;;;;;7387619;19;20151;-76
2022/10/21 01:21:51;;;;;;;14.32;9.38;;;15.80;99.90;;;;;;7389779;19;20238;-77
2022/10/21 01:24:38;;;;;;;13.05;9.10;;;15.90;99.90;;;;;;7388899;19;20138;-77
2022/10/21 01:27:28;;;;;;;15.35;9.23;;;15.90;99.90;;;;;;7388847;19;20151;-77
2022/10/21 01:30:15;;;;;;;12.95;9.18;;;15.90;99.90;;;;;;7389504;19;20138;-76
2022/10/21 01:33:01;;;;;;;14.10;9.07;;;15.70;99.90;;;;;;7391810;19;20469;-77
2022/10/21 01:35:47;;;;;;;12.30;8.45;;;15.30;99.90;;;;;;7388800;19;20552;-77
2022/10/21 01:38:25;;;;;;;12.30;8.43;;;15.40;99.90;;;;;;7387372;19;20530;-78
2022/10/21 01:41:02;;;;;;;12.90;8.93;;;15.20;99.90;;;;;;7390663;19;20134;-76
2022/10/21 01:43:36;;;;;;;17.88;9.13;;;15.10;99.90;;;;;;7385777;19;20185;-77
2022/10/21 01:46:08;;;;;;;11.52;7.88;;;15.30;99.90;;;;;;7392080;19;20587;-77
2022/10/21 01:48:40;;;;;;;15.80;9.80;;;15.50;99.90;;;;;;7388873;19;20149;-77
2022/10/21 01:51:08;;;;;;;14.07;9.35;;;15.60;99.90;;;;;;7386880;19;20548;-77
2022/10/21 01:53:49;;;;;;;13.00;8.90;;;15.80;99.90;;;;;;7390708;19;21202;-76
2022/10/21 01:56:17;;;;;;;13.65;8.75;;;15.90;99.90;;;;;;7384270;19;20131;-76
2022/10/21 01:58:46;;;;;;;13.07;8.65;;;15.90;99.90;;;;;;7390297;19;20153;-77
2022/10/21 02:01:14;;;;;;;15.23;8.65;;;16.00;99.90;;;;;;7390121;19;20190;-77
2022/10/21 02:03:42;;;;;;;13.52;8.60;;;16.00;99.90;;;;;;7391106;19;20146;-77
2022/10/21 02:06:08;;;;;;;13.75;8.52;;;16.00;99.90;;;;;;7246466;19;2780873;-75
2022/10/21 02:08:34;;;;;;;13.35;8.65;;;16.10;99.90;;;;;;7391455;19;20154;-77
2022/10/21 02:11:05;;;;;;;12.63;8.25;;;16.10;99.90;;;;;;7392682;19;20130;-76
2022/10/21 02:13:47;;;;;;;13.13;8.23;;;16.20;99.90;;;;;;7391422;19;20138;-75
2022/10/21 02:16:17;;;;;;;13.48;7.82;;;16.20;99.90;;;;;;7391158;19;20228;-75
2022/10/21 02:18:43;;;;;;;12.75;8.93;;;16.20;99.90;;;;;;7391228;19;20279;-76
2022/10/21 02:21:19;;;;;;;14.63;8.18;;;16.00;99.90;;;;;;7389869;19;20233;-75
2022/10/21 02:24:05;;;;;;;13.65;8.43;;;16.00;99.90;;;;;;7390882;19;20134;-75
2022/10/21 02:26:31;;;;;;;11.43;7.22;;;15.90;99.90;;;;;;7391926;19;20134;-76
2022/10/21 02:28:58;;;;;;;11.88;8.48;;;16.00;99.90;;;;;;7388130;19;20142;-74
2022/10/21 02:31:35;;;;;;;11.63;7.80;;;16.10;99.90;;;;;;7392500;19;20141;-76
2022/10/21 02:34:13;;;;;;;12.82;8.82;;;16.20;99.90;;;;;;7389744;19;20150;-75
2022/10/21 02:36:52;;;;;;;11.38;7.90;;;16.10;99.90;;;;;;7390978;19;20619;-76
2022/10/21 02:39:27;;;;;;;12.05;8.65;;;16.10;99.90;;;;;;7388931;19;20130;-77
2022/10/21 02:41:54;;;;;;;12.45;8.60;;;16.10;99.90;;;;;;7387726;19;20138;-75
2022/10/21 02:44:21;;;;;;;12.25;8.95;;;16.20;99.90;;;;;;7390012;19;20482;-75
2022/10/21 02:46:47;;;;;;;12.95;8.50;;;16.20;99.90;;;;;;7389096;19;20587;-76
2022/10/21 02:49:13;;;;;;;12.43;8.52;;;16.20;99.90;;;;;;7387799;19;20130;-76
2022/10/21 02:51:40;;;;;;;14.60;9.27;;;16.10;99.90;;;;;;7387140;19;20142;-76
2022/10/21 02:54:06;;;;;;;13.30;8.98;;;16.10;99.90;;;;;;7387028;19;20167;-76
2022/10/21 02:56:32;;;;;;;15.95;9.77;;;16.30;99.90;;;;;;7387997;19;20130;-76
2022/10/21 02:58:58;;;;;;;16.75;8.95;;;16.10;99.90;;;;;;7389318;19;20598;-77
2022/10/21 03:01:23;;;;;;;14.07;9.43;;;16.10;99.90;;;;;;7391725;19;20123;-75
2022/10/21 03:03:49;;;;;;;13.05;8.77;;;15.80;99.90;;;;;;7386749;19;20143;-77
2022/10/21 03:06:15;;;;;;;10.93;7.57;;;15.90;99.90;;;;;;7386647;19;20164;-77
2022/10/21 03:08:41;;;;;;;11.60;8.15;;;15.70;99.90;;;;;;7386695;19;20214;-77
2022/10/21 03:11:06;;;;;;;10.52;7.70;;;15.90;99.90;;;;;;7388110;19;20135;-77
2022/10/21 03:13:32;;;;;;;9.45;7.50;;;16.00;99.90;;;;;;7389696;19;20553;-76
2022/10/21 03:15:58;;;;;;;8.82;7.03;;;16.10;99.90;;;;;;7389150;19;20146;-77
2022/10/21 03:18:23;;;;;;;9.45;6.88;;;16.10;99.90;;;;;;7390420;19;20511;-77
2022/10/21 03:20:50;;;;;;;9.95;7.53;;;16.10;99.90;;;;;;7388704;19;20138;-77
2022/10/21 03:23:17;;;;;;;11.90;7.20;;;16.00;99.90;;;;;;7387138;19;20147;-77
2022/10/21 03:25:43;;;;;;;10.80;6.75;;;15.80;99.90;;;;;;7389128;19;20210;-77
2022/10/21 03:28:09;;;;;;;10.95;7.32;;;15.80;99.90;;;;;;7386568;19;20610;-76
2022/10/21 03:30:34;;;;;;;10.57;6.97;;;15.80;99.90;;;;;;7386582;19;20258;-77
2022/10/21 03:33:00;;;;;;;10.85;6.75;;;16.00;99.90;;;;;;7387122;19;20162;-77
2022/10/21 03:35:26;;;;;;;10.38;6.55;;;15.90;99.90;;;;;;7385938;19;20167;-77
2022/10/21 03:37:52;;;;;;;9.55;6.47;;;15.80;99.90;;;;;;7387590;19;20145;-77
2022/10/21 03:40:18;;;;;;;10.18;6.85;;;15.90;99.90;;;;;;7388299;19;20476;-77
2022/10/21 03:42:44;;;;;;;7.22;5.88;;;15.90;99.90;;;;;;7386733;19;20139;-77
2022/10/21 03:45:10;;;;;;;7.45;6.13;;;15.80;99.90;;;;;;7387897;19;20214;-76
2022/10/21 03:47:36;;;;;;;9.10;6.00;;;15.80;99.90;;;;;;7387468;19;20146;-77
2022/10/21 03:50:03;;;;;;;9.85;6.47;;;15.90;99.90;;;;;;7386889;19;20472;-76
2022/10/21 03:52:28;;;;;;;7.88;6.22;;;15.90;99.90;;;;;;7387815;19;20151;-77
2022/10/21 03:54:54;;;;;;;10.52;7.13;;;16.00;99.90;;;;;;7386639;19;20148;-77
2022/10/21 03:57:20;;;;;;;10.40;6.85;;;16.10;99.90;;;;;;7386236;19;20620;-77
2022/10/21 03:59:45;;;;;;;11.85;6.55;;;16.20;99.90;;;;;;7387355;19;20591;-76
2022/10/21 04:02:11;;;;;;;10.65;6.03;;;16.30;99.90;;;;;;7385720;19;20242;-77
2022/10/21 04:04:37;;;;;;;8.82;6.35;;;15.90;99.90;;;;;;7387870;19;20498;-76
2022/10/21 04:07:03;;;;;;;9.23;6.00;;;15.90;99.90;;;;;;7384209;19;20149;-77
2022/10/21 04:09:29;;;;;;;9.52;5.95;;;16.00;99.90;;;;;;7387305;19;20154;-77
2022/10/21 04:11:54;;;;;;;7.60;5.45;;;15.80;99.90;;;;;;7385807;19;20184;-78
2022/10/21 04:14:20;;;;;;;8.93;5.25;;;15.90;99.90;;;;;;7383832;19;20210;-77
2022/10/21 04:16:46;;;;;;;8.13;5.85;;;15.90;99.90;;;;;;7384619;19;20515;-78
2022/10/21 04:19:17;;;;;;;9.15;5.55;;;15.90;99.90;;;;;;7385152;19;20576;-77
2022/10/21 04:21:43;;;;;;;7.90;5.88;;;16.00;99.90;;;;;;7385914;19;20139;-77
2022/10/21 04:24:08;;;;;;;9.73;5.93;;;16.10;99.90;;;;;;7386218;19;20278;-77
2022/10/21 04:26:34;;;;;;;8.80;5.53;;;16.20;99.90;;;;;;7387392;19;20175;-77
2022/10/21 04:29:00;;;;;;;8.98;6.72;;;16.10;99.90;;;;;;7384669;19;20504;-77
2022/10/21 04:31:26;;;;;;;10.45;6.53;;;16.30;99.90;;;;;;7385901;19;20139;-77
2022/10/21 04:33:51;;;;;;;8.80;6.53;;;16.30;99.90;;;;;;7385046;19;20619;-77
2022/10/21 04:36:18;;;;;;;12.45;7.20;;;16.40;99.90;;;;;;7386079;19;20142;-77
2022/10/21 04:38:43;;;;;;;11.50;7.03;;;16.50;99.90;;;;;;7386866;19;20866;-76
2022/10/21 04:41:09;;;;;;;10.63;6.05;;;16.40;99.90;;;;;;7386066;19;20142;-77
2022/10/21 04:43:36;;;;;;;10.02;6.13;;;16.10;99.90;;;;;;7387678;19;20150;-76
2022/10/21 04:46:02;;;;;;;8.65;6.10;;;16.00;99.90;;;;;;7387366;19;20162;-77
2022/10/21 04:48:28;;;;;;;9.10;6.43;;;16.10;99.90;;;;;;7387292;19;20246;-77
2022/10/21 04:50:54;;;;;;;9.43;5.15;;;16.00;99.90;;;;;;7387739;19;20139;-78
2022/10/21 04:53:21;;;;;;;7.75;5.65;;;16.00;99.90;;;;;;7386650;19;20242;-77
2022/10/21 04:55:53;;;;;;;12.65;7.00;;;16.10;99.90;;;;;;7386791;19;20666;-78
2022/10/21 04:58:20;;;;;;;9.48;6.47;;;16.30;99.90;;;;;;7386485;19;20127;-76
2022/10/21 05:00:46;;;;;;;10.10;6.93;;;16.10;99.90;;;;;;7386927;19;20139;-78
2022/10/21 05:03:11;;;;;;;7.70;6.07;;;16.30;99.90;;;;;;7382616;19;20205;-76
2022/10/21 05:05:37;;;;;;;14.45;6.80;;;16.30;99.90;;;;;;7382190;19;20184;-78
2022/10/21 05:08:03;;;;;;;13.70;7.55;;;16.30;99.90;;;;;;7385546;19;20190;-77
2022/10/21 05:10:29;;;;;;;10.68;7.13;;;16.30;99.90;;;;;;7382859;19;20195;-76
2022/10/21 05:12:56;;;;;;;13.63;8.52;;;16.30;99.90;;;;;;7382725;19;20126;-77
2022/10/21 05:15:23;;;;;;;10.93;7.10;;;16.10;99.90;;;;;;7383281;19;20135;-77
2022/10/21 05:17:49;;;;;;;11.93;8.32;;;16.10;99.90;;;;;;7386915;19;20540;-76
2022/10/21 05:20:15;;;;;;;10.35;7.95;;;16.30;99.90;;;;;;7391104;19;20126;-77
2022/10/21 05:22:41;;;;;;;11.73;7.97;;;16.20;99.90;;;;;;7390334;19;20619;-78
2022/10/21 05:25:07;;;;;;;12.52;7.50;;;16.40;99.90;;;;;;7391103;19;20127;-77
2022/10/21 05:27:34;;;;;;;12.88;6.20;;;16.20;99.90;;;;;;7392683;19;20131;-77
2022/10/21 05:29:59;;;;;;;11.00;6.30;;;16.20;99.90;;;;;;7392035;19;20247;-77
2022/10/21 05:32:25;;;;;;;11.65;6.70;;;16.10;99.90;;;;;;7394216;19;20131;-77
2022/10/21 05:34:51;;;;;;;9.82;5.22;;;16.20;99.90;;;;;;7391066;19;20169;-76
2022/10/21 05:37:17;;;;;;;7.53;4.60;;;16.20;99.90;;;;;;7388547;19;20599;-77
2022/10/21 05:39:43;;;;;;;7.45;3.85;;;16.20;99.90;;;;;;7389351;19;20141;-77
2022/10/21 05:42:09;;;;;;;9.30;3.42;;;16.20;99.90;;;;;;7392994;19;20157;-75
2022/10/21 05:44:34;;;;;;;8.05;4.05;;;16.30;99.90;;;;;;7390299;19;20623;-76
2022/10/21 05:47:00;;;;;;;8.35;3.60;;;16.20;99.90;;;;;;7393019;19;20130;-75
2022/10/21 05:49:26;;;;;;;6.20;3.40;;;16.30;99.90;;;;;;7392543;19;20130;-75
2022/10/21 05:51:51;;;;;;;4.85;3.47;;;16.30;99.90;;;;;;7392569;19;20138;-75
2022/10/21 05:54:17;;;;;;;5.53;3.35;;;16.30;99.90;;;;;;7392509;19;20226;-75
2022/10/21 05:56:43;;;;;;;9.73;3.22;;;16.20;99.90;;;;;;7392673;19;20134;-75
2022/10/21 05:59:10;;;;;;;8.63;3.55;;;16.30;99.90;;;;;;7392077;19;20130;-76
2022/10/21 06:01:36;;;;;;;7.13;2.92;;;16.40;99.90;;;;;;7396000;19;20155;-74
2022/10/21 06:04:02;;;;;;;6.45;3.85;;;16.40;99.90;;;;;;7391113;19;20154;-75
2022/10/21 06:06:28;;;;;;;9.15;3.10;;;16.40;99.90;;;;;;7389065;19;20170;-74
2022/10/21 06:08:54;;;;;;;6.30;3.00;;;16.40;99.90;;;;;;7389824;19;20156;-75
2022/10/21 06:11:19;;;;;;;6.65;3.00;;;16.50;99.90;;;;;;7389985;19;20600;-75
2022/10/21 06:13:46;;;;;;;6.20;2.83;;;16.30;99.90;;;;;;7391297;19;20507;-76
2022/10/21 06:16:13;;;;;;;5.57;2.50;;;16.40;99.90;;;;;;7391580;19;20158;-75
2022/10/21 06:18:39;;;;;;;8.93;2.83;;;16.60;99.90;;;;;;7389728;19;20169;-76
2022/10/21 06:21:06;;;;;;;5.93;2.92;;;16.70;99.90;;;;;;7391373;19;20150;-75
2022/10/21 06:23:32;;;;;;;10.18;3.00;;;16.70;99.90;;;;;;7390853;19;20469;-75
2022/10/21 06:26:01;;;;;;;8.63;3.20;;;16.80;99.90;;;;;;7391748;19;20273;-75
2022/10/21 06:28:29;;;;;;;4.10;2.53;;;17.00;99.90;;;;;;7388107;19;20514;-76
2022/10/21 06:30:55;;;;;;;10.27;3.42;;;16.90;99.90;;;;;;7392506;19;20139;-75
2022/10/21 06:33:20;;;;;;;11.73;3.72;;;17.10;99.90;;;;;;7390754;19;20138;-75
2022/10/21 06:35:47;;;;;;;9.05;3.28;;;16.90;99.90;;;;;;7390578;19;20642;-76
2022/10/21 06:38:13;;;;;;;5.32;2.72;;;16.70;99.90;;;;;;7389099;19;20258;-75
2022/10/21 06:40:39;;;;;;;6.90;2.90;;;16.80;99.90;;;;;;7392395;19;20242;-75
2022/10/21 06:43:05;;;;;;;9.27;3.42;;;16.90;99.90;;;;;;7390928;19;20126;-75
2022/10/21 06:45:30;;;;;;;14.30;5.13;;;17.00;99.90;;;;;;7391858;19;20131;-76
2022/10/21 06:47:56;;;;;;;8.45;4.70;;;17.10;99.90;;;;;;7389593;19;20139;-76
2022/10/21 06:50:22;;;;;;;8.90;4.60;;;17.10;99.90;;;;;;7384720;19;20603;-74
2022/10/21 06:52:49;;;;;;;14.43;5.07;;;17.00;99.90;;;;;;7389364;19;20135;-75
2022/10/21 06:55:15;;;;;;;11.07;5.05;;;16.90;99.90;;;;;;7385251;19;20190;-74
2022/10/21 06:57:44;;;;;;;12.48;5.15;;;16.90;99.90;;;;;;7388925;19;20145;-75
2022/10/21 07:00:12;;;;;;;11.80;7.30;;;16.90;99.90;;;;;;7391893;19;20503;-76
2022/10/21 07:02:41;;;;;;;9.02;4.85;;;16.60;99.90;;;;;;7390925;19;20154;-76
2022/10/21 07:05:09;;;;;;;11.93;5.20;;;16.60;99.90;;;;;;7389207;19;20185;-75
2022/10/21 07:07:36;;;;;;;11.00;5.45;;;16.70;99.90;;;;;;7390086;19;20656;-76
2022/10/21 07:10:04;;;;;;;9.35;5.80;;;16.60;99.90;;;;;;7390575;19;20138;-75
2022/10/21 07:12:31;;;;;;;11.10;5.55;;;16.70;99.90;;;;;;7393363;19;20131;-76
2022/10/21 07:14:57;;;;;;;11.65;5.40;;;16.80;99.90;;;;;;7392290;19;20226;-76
2022/10/21 07:17:23;;;;;;;21.90;6.47;;;16.80;99.90;;;;;;7391294;19;20135;-76
2022/10/21 07:19:49;;;;;;;12.32;5.68;;;16.90;99.90;;;;;;7391775;19;20165;-75
2022/10/21 07:22:16;;;;;;;13.27;5.75;;;17.00;99.90;;;;;;7392429;19;20145;-76
2022/10/21 07:24:42;;;;;;;13.10;6.20;;;16.90;99.90;;;;;;7394048;19;20616;-76
2022/10/21 07:27:08;;;;;;;8.80;5.43;;;16.90;99.90;;;;;;7394253;19;20130;-75
2022/10/21 07:29:34;;;;;;;11.25;5.28;;;16.80;99.90;;;;;;7390564;19;20127;-78
2022/10/21 07:31:59;;;;;;;9.32;5.45;;;16.90;99.90;;;;;;7390897;19;20260;-76
2022/10/21 07:34:25;;;;;;;13.55;5.43;;;16.90;99.90;;;;;;7395135;19;20142;-75
2022/10/21 07:36:51;;;;;;;14.10;5.63;;;16.90;99.90;;;;;;7393515;19;20584;-76
2022/10/21 07:39:21;;;;;;;12.98;7.85;;;16.90;99.90;;;;;;7391528;19;20607;-75
2022/10/21 07:41:50;;;;;;;11.88;6.88;;;16.60;99.90;;;;;;7392080;19;20142;-76
2022/10/21 07:44:17;;;;;;;12.73;7.20;;;16.40;99.90;;;;;;7390403;19;20159;-76
2022/10/21 07:46:44;;;;;;;14.85;7.05;;;16.30;99.90;;;;;;7388906;19;20242;-76
2022/10/21 07:49:13;;;;;;;10.05;4.78;;;16.50;99.90;;;;;;7387615;19;20138;-76
2022/10/21 07:51:40;;;;;;;9.40;5.20;;;16.60;99.90;;;;;;7388862;19;20615;-76
2022/10/21 07:54:07;;;;;;;7.82;4.30;;;16.50;99.90;;;;;;7387720;19;20164;-75
2022/10/21 07:56:39;;;;;;;9.82;4.80;;;16.50;99.90;;;;;;7388337;19;20517;-76
2022/10/21 07:59:05;;;;;;;9.27;3.72;;;16.40;99.90;;;;;;7386300;19;20138;-75
2022/10/21 08:01:32;;;;;;;9.93;3.80;;;16.30;99.90;;;;;;7388777;19;20127;-75
2022/10/21 08:03:58;;;;;;;10.80;3.92;;;16.40;99.90;;;;;;7384466;19;20253;-75
2022/10/21 08:06:25;;;;;;;8.15;4.28;;;16.50;99.90;;;;;;7385582;19;20166;-75
2022/10/21 08:08:51;;;;;;;7.78;3.65;;;16.60;99.90;;;;;;7387020;19;20143;-75
2022/10/21 08:11:26;;;;;;;6.63;3.30;;;16.60;99.90;;;;;;7388470;19;20134;-76
2022/10/21 08:13:53;;;;;;;8.50;2.92;;;16.80;99.90;;;;;;7385987;19;20154;-76
2022/10/21 08:16:19;;;;;;;10.90;5.03;;;16.70;99.90;;;;;;7385929;19;20146;-76
2022/10/21 08:18:47;;;;;;;10.32;4.32;;;16.80;99.90;;;;;;7387296;19;20157;-76
2022/10/21 08:21:13;;;;;;;10.90;4.72;;;16.90;99.90;;;;;;7388479;19;20506;-77
2022/10/21 08:23:39;;;;;;;6.28;4.28;;;17.00;99.90;;;;;;7388343;19;20138;-76
2022/10/21 08:26:08;;;;;;;9.70;3.60;;;16.90;99.90;;;;;;7387509;19;20213;-75
2022/10/21 08:28:34;;;;;;;8.63;3.55;;;16.90;99.90;;;;;;7385616;19;20164;-75
2022/10/21 08:31:07;;;;;;;6.20;4.10;;;16.90;99.90;;;;;;7388093;19;20146;-75
2022/10/21 08:33:34;;;;;;;11.50;5.70;;;17.10;99.90;;;;;;7388791;19;20268;-75
2022/10/21 08:36:04;;;;;;;8.80;4.90;;;17.10;99.90;;;;;;7388065;19;20143;-76
2022/10/21 08:38:30;;;;;;;9.82;4.90;;;17.00;99.90;;;;;;7386578;19;20147;-77
2022/10/21 08:40:56;;;;;;;12.13;4.90;;;17.10;99.90;;;;;;7388975;19;20150;-76
2022/10/21 08:43:26;;;;;;;10.05;4.65;;;17.10;99.90;;;;;;7389225;19;20150;-76
2022/10/21 08:46:00;;;;;;;8.20;5.03;;;17.00;99.90;;;;;;7385664;19;20470;-76
2022/10/21 08:48:32;;;;;;;11.35;5.35;;;17.10;99.90;;;;;;7385598;19;20166;-76
2022/10/21 08:50:59;;;;;;;10.68;6.00;;;17.00;99.90;;;;;;7386277;19;20139;-75
2022/10/21 08:53:37;;;;;;;9.80;5.47;;;16.90;99.90;;;;;;7394281;19;20134;-75
2022/10/21 08:56:08;;;;;;;12.48;5.55;;;17.00;99.90;;;;;;7391516;19;20142;-76
2022/10/21 08:58:34;;;;;;;9.95;5.28;;;17.00;99.90;;;;;;7393647;19;20156;-76
2022/10/21 09:01:09;;;;;;;15.55;8.02;;;16.90;99.90;;;;;;7396517;19;20138;-76
2022/10/21 09:03:47;;;;;;;15.02;8.25;;;16.80;99.90;;;;;;7391779;19;20153;-77
2022/10/21 09:06:40;;;;;;;11.07;5.72;;;16.70;99.90;;;;;;7392153;19;20154;-76
2022/10/21 09:09:28;;;;;;;37.65;8.85;;;16.90;99.90;;;;;;7392954;19;20510;-76
2022/10/21 09:12:05;;;;;;;13.05;5.65;;;16.70;99.90;;;;;;7393487;19;20139;-75
2022/10/21 09:14:38;;;;;;;12.02;5.22;;;16.80;99.90;;;;;;7391202;19;20173;-76
2022/10/21 09:17:30;;;;;;;13.10;5.47;;;16.80;99.90;;;;;;7391576;19;20194;-75
2022/10/21 09:20:26;;;;;;;11.38;5.03;;;16.80;99.90;;;;;;7391781;19;20139;-75
2022/10/21 09:23:16;;;;;;;12.43;4.57;;;16.80;99.90;;;;;;7397628;19;20130;-75
2022/10/21 09:25:50;;;;;;;7.15;3.70;;;16.80;99.90;;;;;;7391917;19;20147;-76
2022/10/21 09:28:16;;;;;;;7.70;4.90;;;16.80;99.90;;;;;;7391281;19;20193;-76
2022/10/21 09:30:43;;;;;;;9.10;4.00;;;16.80;99.90;;;;;;7391792;19;20214;-76
2022/10/21 09:33:25;;;;;;;8.00;3.78;;;16.80;99.90;;;;;;7392096;19;20619;-77
2022/10/21 09:36:21;;;;;;;11.32;4.47;;;17.00;99.90;;;;;;7393282;19;20153;-77
2022/10/21 09:39:10;;;;;;;13.07;4.70;;;17.10;99.90;;;;;;7393642;19;20153;-75
2022/10/21 09:41:43;;;;;;;11.57;4.30;;;17.20;99.90;;;;;;7391553;19;20529;-75
2022/10/21 09:44:19;;;;;;;7.50;3.90;;;17.30;99.90;;;;;;7390609;19;20161;-76
2022/10/21 09:46:47;;;;;;;5.63;4.07;;;17.40;99.90;;;;;;7391062;19;20251;-76
2022/10/21 09:49:28;;;;;;;12.75;4.05;;;17.30;99.90;;;;;;7391758;19;20158;-77
2022/10/21 09:51:58;;;;;;;7.55;4.05;;;17.20;99.90;;;;;;7390393;19;20154;-75
2022/10/21 09:54:32;;;;;;;7.93;3.03;;;17.20;99.90;;;;;;7389616;19;20154;-75
2022/10/21 09:57:18;;;;;;;6.03;3.00;;;17.20;99.90;;;;;;7390282;19;20849;-75
2022/10/21 09:59:51;;;;;;;8.35;3.88;;;17.20;99.90;;;;;;7394609;19;20161;-77
2022/10/21 10:02:26;;;;;;;4.53;3.10;;;17.30;99.90;;;;;;7390497;19;20694;-76
2022/10/21 10:04:51;;;;;;;8.43;3.05;;;17.40;99.90;;;;;;7391188;19;20564;-76
2022/10/21 10:07:27;;;;;;;3.50;2.50;;;17.40;99.90;;;;;;7391221;19;20564;-75
2022/10/21 10:09:53;;;;;;;5.18;2.63;;;17.50;99.90;;;;;;7390310;19;20229;-75
2022/10/21 10:12:24;;;;;;;4.15;2.40;;;17.50;99.90;;;;;;7390773;19;20154;-75
2022/10/21 10:14:51;;;;;;;7.30;2.67;;;17.60;99.90;;;;;;7390485;19;20157;-74
2022/10/21 10:17:36;;;;;;;4.60;2.40;;;17.60;99.90;;;;;;7390063;19;20735;-76
2022/10/21 10:20:04;;;;;;;8.90;2.75;;;17.70;99.90;;;;;;7390803;19;20737;-76
2022/10/21 10:22:36;;;;;;;4.35;2.33;;;17.70;99.90;;;;;;7394324;19;20153;-76
2022/10/21 10:25:13;;;;;;;10.68;6.30;;;17.60;99.90;;;;;;7392475;19;20134;-76
2022/10/21 10:27:53;;;;;;;6.13;2.67;;;17.50;99.90;;;;;;7396661;19;20142;-76
2022/10/21 10:30:21;;;;;;;5.40;2.15;;;17.50;99.90;;;;;;7396758;19;20143;-75
2022/10/21 10:32:50;;;;;;;7.88;2.33;;;17.50;99.90;;;;;;7394081;19;20139;-76
2022/10/21 10:35:31;;;;;;;3.60;2.35;;;17.50;99.90;;;;;;7392585;19;20145;-75
2022/10/21 10:38:01;;;;;;;37.15;19.35;;;17.60;99.90;;;;;;7389503;19;20610;-77
2022/10/21 10:40:45;;;;;;;6.05;3.60;;;17.60;99.90;;;;;;7392874;19;20138;-75
2022/10/21 10:43:30;;;;;;;3.83;1.95;;;17.50;99.90;;;;;;7389591;19;20160;-76
2022/10/21 10:46:06;;;;;;;6.43;2.28;;;17.70;99.90;;;;;;7389799;19;20150;-75
2022/10/21 10:48:43;;;;;;;5.40;2.58;;;17.70;99.90;;;;;;7391199;19;20134;-75
2022/10/21 10:51:23;;;;;;;3.80;2.05;;;17.70;99.90;;;;;;7388820;19;20529;-76
2022/10/21 10:54:17;;;;;;;7.28;5.43;;;17.80;99.90;;;;;;7389576;19;20134;-75
2022/10/21 10:56:48;;;;;;;3.88;2.13;;;17.70;99.90;;;;;;7393869;19;20166;-75
2022/10/21 10:59:32;;;;;;;3.15;2.05;;;17.80;99.90;;;;;;7388316;19;20157;-75
2022/10/21 11:02:01;;;;;;;8.52;4.82;;;17.70;99.90;;;;;;7388684;19;20152;-75
2022/10/21 11:04:32;;;;;;;4.13;2.40;;;17.70;99.90;;;;;;7388238;19;20610;-74
2022/10/21 11:07:11;;;;;;;4.32;2.22;;;17.70;99.90;;;;;;7387063;19;20177;-76
2022/10/21 11:09:37;;;;;;;4.00;1.77;;;17.70;99.90;;;;;;7390754;19;20174;-76
2022/10/21 11:12:10;;;;;;;3.58;2.05;;;17.80;99.90;;;;;;7387805;19;20151;-76
2022/10/21 11:14:36;;;;;;;4.05;2.10;;;17.90;99.90;;;;;;7385869;19;20142;-74
2022/10/21 11:17:12;;;;;;;5.05;2.25;;;17.90;99.90;;;;;;7386542;19;20146;-76
2022/10/21 11:19:50;;;;;;;2.72;1.77;;;17.90;99.90;;;;;;7390287;19;20142;-74
2022/10/21 11:22:41;;;;;;;4.72;2.17;;;18.00;99.90;;;;;;7388307;19;20162;-75
2022/10/21 11:25:25;;;;;;;3.08;2.08;;;18.20;99.90;;;;;;7389480;19;20148;-76
2022/10/21 11:28:21;;;;;;;6.00;2.28;;;18.20;99.90;;;;;;7391041;19;20226;-75
2022/10/21 11:31:05;;;;;;;5.43;1.63;;;18.20;99.90;;;;;;7391065;19;20138;-75
2022/10/21 11:33:40;;;;;;;4.85;2.05;;;18.20;99.90;;;;;;7388280;19;20587;-74
2022/10/21 11:36:17;;;;;;;3.60;1.95;;;18.40;99.90;;;;;;7386667;19;20150;-74
2022/10/21 11:39:12;;;;;;;3.25;1.67;;;18.30;99.90;;;;;;7389181;19;20131;-75
2022/10/21 11:41:53;;;;;;;2.35;1.50;;;18.40;99.90;;;;;;7389953;19;20168;-74
2022/10/21 11:44:47;;;;;;;3.35;1.30;;;18.50;99.90;;;;;;7389395;19;20146;-75
2022/10/21 11:47:19;;;;;;;1.88;1.02;;;18.50;99.90;;;;;;7387776;19;20134;-74
2022/10/21 11:49:44;;;;;;;1.83;1.27;;;18.60;99.90;;;;;;7386302;19;20263;-75
2022/10/21 11:52:25;;;;;;;1.88;1.08;;;18.60;99.90;;;;;;7391105;19;20494;-75
2022/10/21 11:55:03;;;;;;;4.30;1.25;;;18.60;99.90;;;;;;7387237;19;20134;-75
2022/10/21 11:57:40;;;;;;;2.42;1.27;;;18.60;99.90;;;;;;7385090;19;20162;-75
2022/10/21 12:00:19;;;;;;;2.65;1.20;;;18.50;99.90;;;;;;7389646;19;20138;-75
2022/10/21 12:03:02;;;;;;;23.25;14.55;;;18.50;99.90;;;;;;7386201;19;20527;-75
2022/10/21 12:05:37;;;;;;;3.00;1.77;;;18.60;99.90;;;;;;7385944;19;20200;-75
2022/10/21 12:08:27;;;;;;;2.20;1.00;;;18.50;99.90;;;;;;7388447;19;20134;-75
2022/10/21 12:11:10;;;;;;;2.45;1.50;;;18.50;99.90;;;;;;7389753;19;20140;-74
2022/10/21 12:13:56;;;;;;;1.95;1.10;;;18.50;99.90;;;;;;7386916;19;20150;-75
2022/10/21 12:16:27;;;;;;;4.70;1.27;;;18.50;99.90;;;;;;7387308;19;20154;-75
2022/10/21 12:18:55;;;;;;;1.85;1.30;;;18.40;99.90;;;;;;7387258;19;20138;-75
2022/10/21 12:21:28;;;;;;;4.18;1.35;;;18.40;99.90;;;;;;7389770;19;20155;-74
2022/10/21 12:24:25;;;;;;;3.60;1.05;;;18.40;99.90;;;;;;7386015;19;20135;-76
2022/10/21 12:27:23;;;;;;;1.90;1.30;;;18.40;99.90;;;;;;7389044;19;20222;-75
2022/10/21 12:29:55;;;;;;;1.33;0.85;;;18.30;99.90;;;;;;7392995;19;20149;-75
2022/10/21 12:32:41;;;;;;;5.40;0.90;;;18.40;99.90;;;;;;7396760;19;20143;-75
2022/10/21 12:35:19;;;;;;;1.42;0.88;;;18.40;99.90;;;;;;7393952;19;20610;-75
2022/10/21 12:37:51;;;;;;;2.00;1.30;;;18.40;99.90;;;;;;7392417;19;20162;-74
2022/10/21 12:40:36;;;;;;;3.40;1.35;;;18.40;99.90;;;;;;7395405;19;20151;-74
2022/10/21 12:43:03;;;;;;;2.78;1.48;;;18.40;99.90;;;;;;7395402;19;20150;-75
2022/10/21 12:45:37;;;;;;;2.70;0.93;;;18.30;99.90;;;;;;7397926;19;20138;-75
2022/10/21 12:48:32;;;;;;;2.67;0.70;;;18.40;99.90;;;;;;7395288;19;20138;-75
2022/10/21 12:51:04;;;;;;;1.48;0.85;;;18.40;99.90;;;;;;7392728;19;20142;-74
2022/10/21 12:53:33;;;;;;;1.55;0.75;;;18.50;99.90;;;;;;7394587;19;20210;-75
2022/10/21 12:56:00;;;;;;;1.00;0.68;;;18.20;99.90;;;;;;7394020;19;20141;-75
2022/10/21 12:58:36;;;;;;;1.50;0.80;;;18.20;99.90;;;;;;7395711;19;20150;-76
2022/10/21 13:01:05;;;;;;;1.35;0.75;;;18.20;99.90;;;;;;7393245;19;20150;-75